createdAt,value
2024-02-08T00:01:06.622Z,221.52
2024-02-08T00:03:34.460Z,219.75
2024-02-08T00:06:02.395Z,218.77
2024-02-08T00:08:30.454Z,214.13
2024-02-08T00:10:58.574Z,228.32
2024-02-08T00:13:26.373Z,211.75
2024-02-08T00:15:55.743Z,209.80
2024-02-08T00:18:26.635Z,223.68
2024-02-08T00:20:54.636Z,227.52
2024-02-08T00:23:22.392Z,218.52
2024-02-08T00:25:51.497Z,224.63
2024-02-08T00:28:22.802Z,218.15
2024-02-08T00:30:50.723Z,216.60
2024-02-08T00:33:18.447Z,221.98
2024-02-08T00:35:46.157Z,214.18
2024-02-08T00:38:13.970Z,224.57
2024-02-08T00:40:41.756Z,221.80
2024-02-08T00:43:09.532Z,213.90
2024-02-08T00:45:37.207Z,221.82
2024-02-08T00:48:05.969Z,226.27
2024-02-08T00:50:33.894Z,231.90
2024-02-08T00:53:04.967Z,239.75
2024-02-08T00:55:32.652Z,225.68
2024-02-08T00:58:01.549Z,227.15
2024-02-08T01:00:29.671Z,236.63
2024-02-08T01:03:00.643Z,229.85
2024-02-08T01:05:28.753Z,238.27
2024-02-08T01:07:57.769Z,240.52
2024-02-08T01:10:25.442Z,243.25
2024-02-08T01:12:54.946Z,232.95
2024-02-08T01:15:22.960Z,249.45
2024-02-08T01:17:52.745Z,231.60
2024-02-08T01:20:29.476Z,236.48
2024-02-08T01:22:58.883Z,230.13
2024-02-08T01:25:26.711Z,247.55
2024-02-08T01:27:54.409Z,237.52
2024-02-08T01:30:25.758Z,239.35
2024-02-08T01:32:54.641Z,233.75
2024-02-08T01:35:26.038Z,245.95
2024-02-08T01:37:54.872Z,247.82
2024-02-08T01:40:23.756Z,241.98
2024-02-08T01:42:58.447Z,248.60
2024-02-08T01:45:39.105Z,245.20
2024-02-08T01:48:12.241Z,245.05
2024-02-08T01:50:43.560Z,240.02
2024-02-08T01:53:15.450Z,235.80
2024-02-08T01:55:50.804Z,230.95
2024-02-08T01:58:18.885Z,238.45
2024-02-08T02:00:50.614Z,244.20
2024-02-08T02:03:20.867Z,235.40
2024-02-08T02:05:49.110Z,243.38
2024-02-08T02:08:22.722Z,245.10
2024-02-08T02:10:55.904Z,239.15
2024-02-08T02:13:24.221Z,238.20
2024-02-08T02:15:52.625Z,235.70
2024-02-08T02:18:31.311Z,234.68
2024-02-08T02:20:59.973Z,226.60
2024-02-08T02:23:27.646Z,239.05
2024-02-08T02:25:55.994Z,235.27
2024-02-08T02:28:23.768Z,224.88
2024-02-08T02:30:51.907Z,241.55
2024-02-08T02:33:20.669Z,241.13
2024-02-08T02:35:51.482Z,235.10
2024-02-08T02:38:20.085Z,229.65
2024-02-08T02:40:48.324Z,243.35
2024-02-08T02:43:16.332Z,234.07
2024-02-08T02:45:44.097Z,234.63
2024-02-08T02:48:11.991Z,225.18
2024-02-08T02:50:43.117Z,231.60
2024-02-08T02:53:11.842Z,236.18
2024-02-08T02:55:39.908Z,227.38
2024-02-08T02:58:07.782Z,233.77
2024-02-08T03:00:35.684Z,231.32
2024-02-08T03:03:08.330Z,230.43
2024-02-08T03:05:36.755Z,229.73
2024-02-08T03:08:07.864Z,227.38
2024-02-08T03:10:39.677Z,226.13
2024-02-08T03:13:09.066Z,232.48
2024-02-08T03:15:39.777Z,229.85
2024-02-08T03:18:10.886Z,235.73
2024-02-08T03:20:39.570Z,239.85
2024-02-08T03:23:07.869Z,229.68
2024-02-08T03:25:41.454Z,225.38
2024-02-08T03:28:09.518Z,222.73
2024-02-08T03:30:37.276Z,224.05
2024-02-08T03:33:13.624Z,228.85
2024-02-08T03:35:43.137Z,230.73
2024-02-08T03:38:10.908Z,231.15
2024-02-08T03:40:39.070Z,241.73
2024-02-08T03:43:06.925Z,230.40
2024-02-08T03:45:40.777Z,240.85
2024-02-08T03:48:11.986Z,231.75
2024-02-08T03:50:40.642Z,247.82
2024-02-08T03:53:13.753Z,233.60
2024-02-08T03:55:45.044Z,229.93
2024-02-08T03:58:15.911Z,240.00
2024-02-08T04:00:46.946Z,237.57
2024-02-08T04:03:37.987Z,246.07
2024-02-08T04:06:26.674Z,236.27
2024-02-08T04:09:07.766Z,242.43
2024-02-08T04:11:54.006Z,233.85
2024-02-08T04:14:40.516Z,243.82
2024-02-08T04:17:27.310Z,247.55
2024-02-08T04:23:00.312Z,243.45
2024-02-08T04:25:46.701Z,241.07
2024-02-08T04:28:33.055Z,230.05
2024-02-08T04:31:19.540Z,240.70
2024-02-08T04:34:06.099Z,242.80
2024-02-08T04:36:52.506Z,239.15
2024-02-08T04:39:38.860Z,234.40
2024-02-08T04:42:25.356Z,248.77
2024-02-08T04:45:11.552Z,242.10
2024-02-08T04:47:58.038Z,241.20
2024-02-08T04:50:44.251Z,234.63
2024-02-08T04:53:30.528Z,237.63
2024-02-08T04:55:58.932Z,236.90
2024-02-08T04:58:48.002Z,241.38
2024-02-08T05:01:15.982Z,235.57
2024-02-08T05:03:44.143Z,230.27
2024-02-08T05:06:16.226Z,227.68
2024-02-08T05:08:44.449Z,234.98
2024-02-08T05:11:16.600Z,228.52
2024-02-08T05:13:45.645Z,232.50
2024-02-08T05:16:16.109Z,235.00
2024-02-08T05:18:47.470Z,233.23
2024-02-08T05:22:00.749Z,227.43
2024-02-08T05:24:29.744Z,237.05
2024-02-08T05:26:57.855Z,233.43
2024-02-08T05:29:26.249Z,235.93
2024-02-08T05:31:53.994Z,240.60
2024-02-08T05:34:26.741Z,241.35
2024-02-08T05:36:56.773Z,235.30
2024-02-08T05:39:29.496Z,230.32
2024-02-08T05:41:58.837Z,225.82
2024-02-08T05:44:31.737Z,239.95
2024-02-08T05:47:10.435Z,238.32
2024-02-08T05:49:40.543Z,240.50
2024-02-08T05:52:10.368Z,261.02
2024-02-08T05:54:38.882Z,250.25
2024-02-08T05:57:08.558Z,261.00
2024-02-08T05:59:38.805Z,252.52
2024-02-08T06:05:41.500Z,255.02
2024-02-08T06:08:26.387Z,232.48
2024-02-08T06:10:54.354Z,240.98
2024-02-08T06:13:23.695Z,232.82
2024-02-08T06:18:58.690Z,232.88
2024-02-08T06:21:41.920Z,238.40
2024-02-08T06:24:25.458Z,244.10
2024-02-08T06:27:03.449Z,249.00
2024-02-08T06:29:40.268Z,254.02
2024-02-08T06:32:27.418Z,251.82
2024-02-08T06:35:07.504Z,250.48
2024-02-08T06:37:45.661Z,258.85
2024-02-08T06:40:25.593Z,251.15
2024-02-08T06:43:12.325Z,251.07
2024-02-08T06:48:48.669Z,247.85
2024-02-08T06:51:35.522Z,260.50
2024-02-08T06:54:22.273Z,252.30
2024-02-08T06:59:55.788Z,230.75
2024-02-08T07:02:48.795Z,249.18
2024-02-08T07:09:10.987Z,249.15
2024-02-08T07:11:57.646Z,253.88
2024-02-08T07:14:44.084Z,258.35
2024-02-08T07:17:30.459Z,250.57
2024-02-08T07:20:17.069Z,251.75
2024-02-08T07:26:59.002Z,236.90
2024-02-08T07:29:45.816Z,242.48
2024-02-08T07:35:57.331Z,240.15
2024-02-08T07:39:06.437Z,233.25
2024-02-08T07:41:34.429Z,236.95
2024-02-08T07:44:05.192Z,243.82
2024-02-08T07:46:33.951Z,239.70
2024-02-08T07:49:07.220Z,250.18
2024-02-08T07:51:35.433Z,246.30
2024-02-08T07:54:12.573Z,252.43
2024-02-08T07:57:05.857Z,253.93
2024-02-08T07:59:36.172Z,256.42
2024-02-08T08:02:13.290Z,262.45
2024-02-08T08:05:00.085Z,261.60
2024-02-08T08:07:38.817Z,255.95
2024-02-08T08:10:10.842Z,265.55
2024-02-08T08:16:33.714Z,260.77
2024-02-08T08:19:12.311Z,262.48
2024-02-08T08:22:05.658Z,270.45
2024-02-08T08:24:54.270Z,255.27
2024-02-08T08:28:07.835Z,259.27
2024-02-08T08:30:50.767Z,263.55
2024-02-08T08:34:00.271Z,263.27
2024-02-08T08:36:35.905Z,257.83
2024-02-08T08:46:48.135Z,254.75
2024-02-08T08:52:27.474Z,257.27
2024-02-08T08:55:03.057Z,248.02
2024-02-08T08:57:42.345Z,256.92
2024-02-08T09:00:33.425Z,253.63
2024-02-08T09:03:11.903Z,240.15
2024-02-08T09:05:39.782Z,249.25
2024-02-08T09:11:52.913Z,242.95
2024-02-08T09:14:20.743Z,240.68
2024-02-08T09:16:53.785Z,231.13
2024-02-08T09:19:30.282Z,249.18
2024-02-08T09:22:02.978Z,245.88
2024-02-08T09:24:31.377Z,247.93
2024-02-08T09:27:17.386Z,223.57
2024-02-08T09:29:52.039Z,227.68
2024-02-08T09:32:38.275Z,240.30
2024-02-08T09:35:18.143Z,229.55
2024-02-08T09:38:42.173Z,219.45
2024-02-08T09:41:10.895Z,220.82
2024-02-08T09:43:38.713Z,229.85
2024-02-08T09:46:12.453Z,293.77
2024-02-08T10:01:44.014Z,213.70
2024-02-08T10:04:20.713Z,214.07
2024-02-08T10:07:20.366Z,206.30
2024-02-08T10:17:53.216Z,202.35
2024-02-08T10:20:23.672Z,205.15
2024-02-08T10:23:35.056Z,208.82
2024-02-08T10:26:21.390Z,207.20
2024-02-08T10:28:52.224Z,203.88
2024-02-08T10:31:24.085Z,208.38
2024-02-08T10:34:11.777Z,208.10
2024-02-08T10:36:45.967Z,204.05
2024-02-08T10:39:25.763Z,200.27
2024-02-08T10:42:00.784Z,200.98
2024-02-08T10:48:32.674Z,200.43
2024-02-08T10:51:03.446Z,207.75
2024-02-08T10:54:06.286Z,207.00
2024-02-08T10:56:51.812Z,209.18
2024-02-08T11:03:02.135Z,212.85
2024-02-08T11:05:51.441Z,212.90
2024-02-08T11:08:34.713Z,207.95
2024-02-08T11:11:12.150Z,220.48
2024-02-08T11:13:55.118Z,219.50
2024-02-08T11:16:25.209Z,214.82
2024-02-08T11:22:58.980Z,201.32
2024-02-08T11:26:16.658Z,205.13
2024-02-08T11:28:49.814Z,194.50
2024-02-08T11:42:20.515Z,186.80
2024-02-08T11:44:54.337Z,192.30
2024-02-08T11:47:24.975Z,188.00
2024-02-08T11:50:02.292Z,191.30
2024-02-08T11:56:10.079Z,186.95
2024-02-08T11:59:21.673Z,185.40
2024-02-08T12:01:52.314Z,194.50
2024-02-08T12:04:23.442Z,189.77
2024-02-08T12:07:28.923Z,180.32
2024-02-08T12:10:01.236Z,185.00
2024-02-08T12:16:27.358Z,178.00
2024-02-08T12:19:09.617Z,166.40
2024-02-08T12:21:38.393Z,170.82
2024-02-08T12:24:06.268Z,177.45
2024-02-08T12:29:26.060Z,180.10
2024-02-08T12:34:50.119Z,165.82
2024-02-08T12:37:20.904Z,169.73
2024-02-08T12:39:51.233Z,166.55
2024-02-08T12:45:35.245Z,168.38
2024-02-08T12:48:06.004Z,166.90
2024-02-08T12:50:36.369Z,173.57
2024-02-08T12:53:53.088Z,171.18
2024-02-08T12:56:23.312Z,173.77
2024-02-08T12:59:35.020Z,168.60
2024-02-08T13:02:10.357Z,174.88
2024-02-08T13:04:44.985Z,164.65
2024-02-08T13:07:17.094Z,170.25
2024-02-08T13:09:46.318Z,167.82
2024-02-08T13:12:24.240Z,169.00
2024-02-08T13:14:52.453Z,165.38
2024-02-08T13:17:27.178Z,158.88
2024-02-08T13:19:56.589Z,160.65
2024-02-08T13:22:32.510Z,171.98
2024-02-08T13:28:52.277Z,169.73
2024-02-08T13:31:20.235Z,166.20
2024-02-08T13:33:49.230Z,166.75
2024-02-08T13:36:19.079Z,170.25
2024-02-08T13:38:50.825Z,170.20
2024-02-08T13:41:18.823Z,171.63
2024-02-08T13:43:50.441Z,162.25
2024-02-08T13:46:19.485Z,164.13
2024-02-08T13:48:47.422Z,171.90
2024-02-08T13:51:17.870Z,163.27
2024-02-08T14:00:05.664Z,160.15
2024-02-08T14:02:41.192Z,158.57
2024-02-08T14:05:18.323Z,162.02
2024-02-08T14:07:49.003Z,170.73
2024-02-08T14:10:28.877Z,162.88
2024-02-08T14:13:12.185Z,162.07
2024-02-08T14:15:50.081Z,166.95
2024-02-08T14:18:29.062Z,174.13
2024-02-08T14:21:01.890Z,167.77
2024-02-08T14:23:39.456Z,173.63
2024-02-08T14:26:08.185Z,168.82
2024-02-08T14:28:39.550Z,163.82
2024-02-08T14:31:12.616Z,163.07
2024-02-08T14:33:47.779Z,173.23
2024-02-08T14:36:17.974Z,172.73
2024-02-08T14:38:50.042Z,167.48
2024-02-08T14:41:27.972Z,168.85
2024-02-08T14:44:07.486Z,185.73
2024-02-08T14:46:37.058Z,179.50
2024-02-08T14:49:18.365Z,176.43
2024-02-08T14:51:49.861Z,181.40
2024-02-08T14:54:20.346Z,172.98
2024-02-08T14:57:05.585Z,176.25
2024-02-08T15:00:06.822Z,172.67
2024-02-08T15:02:34.392Z,181.43
2024-02-08T15:05:03.710Z,180.48
2024-02-08T15:07:52.556Z,175.77
2024-02-08T15:10:43.332Z,181.45
2024-02-08T15:13:20.592Z,172.65
2024-02-08T15:15:51.685Z,170.60
2024-02-08T15:18:31.443Z,181.10
2024-02-08T15:20:59.238Z,171.35
2024-02-08T15:23:33.702Z,177.57
2024-02-08T15:26:14.679Z,167.70
2024-02-08T15:32:13.465Z,177.98
2024-02-08T15:34:53.336Z,172.35
2024-02-08T15:37:33.255Z,168.00
2024-02-08T15:40:18.132Z,174.27
2024-02-08T15:42:50.625Z,169.40
2024-02-08T15:45:22.935Z,172.13
2024-02-08T15:47:56.528Z,162.35
2024-02-08T15:50:44.390Z,163.30
2024-02-08T15:53:21.265Z,170.95
2024-02-08T15:55:50.964Z,175.10
2024-02-08T15:58:40.287Z,171.90
2024-02-08T16:01:11.001Z,174.15
2024-02-08T16:03:47.427Z,166.57
2024-02-08T16:09:03.269Z,172.13
2024-02-08T16:11:31.580Z,167.63
2024-02-08T16:14:10.638Z,173.63
2024-02-08T16:16:40.514Z,168.05
2024-02-08T16:19:44.027Z,170.05
2024-02-08T16:22:21.045Z,180.93
2024-02-08T16:24:51.834Z,174.68
2024-02-08T16:27:23.111Z,184.15
2024-02-08T16:30:19.980Z,182.30
2024-02-08T16:32:57.056Z,174.50
2024-02-08T16:35:38.768Z,182.52
2024-02-08T16:38:09.290Z,176.63
2024-02-08T16:41:07.147Z,169.60
2024-02-08T16:43:45.328Z,179.93
2024-02-08T16:49:45.123Z,169.00
2024-02-08T16:52:23.202Z,168.73
2024-02-08T16:55:02.920Z,170.90
2024-02-08T16:57:36.547Z,170.23
2024-02-08T17:00:23.164Z,170.68
2024-02-08T17:03:03.231Z,166.13
2024-02-08T17:05:42.454Z,176.38
2024-02-08T17:08:54.470Z,169.57
2024-02-08T17:11:32.969Z,165.23
2024-02-08T17:14:01.903Z,174.38
2024-02-08T17:16:32.601Z,171.70
2024-02-08T17:19:20.688Z,179.00
2024-02-08T17:21:51.319Z,176.90
2024-02-08T17:24:43.156Z,168.82
2024-02-08T17:34:48.736Z,168.70
2024-02-08T17:37:18.971Z,168.98
2024-02-08T17:39:49.340Z,171.95
2024-02-08T17:42:35.014Z,175.85
2024-02-08T17:45:02.932Z,173.27
2024-02-08T17:47:33.120Z,174.95
2024-02-08T17:50:34.817Z,174.50
2024-02-08T17:53:04.732Z,171.77
2024-02-08T17:55:37.781Z,171.82
2024-02-08T17:58:14.339Z,171.05
2024-02-08T18:00:49.471Z,173.75
2024-02-08T18:03:17.657Z,175.75
2024-02-08T18:05:50.447Z,170.48
2024-02-08T18:08:18.772Z,170.20
2024-02-08T18:10:48.509Z,168.02
2024-02-08T18:13:16.264Z,168.52
2024-02-08T18:15:52.021Z,173.68
2024-02-08T18:18:24.120Z,165.27
2024-02-08T18:20:53.354Z,173.23
2024-02-08T18:23:21.731Z,174.98
2024-02-08T18:25:52.357Z,174.35
2024-02-08T18:28:21.149Z,171.75
2024-02-08T18:30:57.448Z,172.85
2024-02-08T18:34:17.515Z,173.13
2024-02-08T18:36:45.992Z,170.55
2024-02-08T18:39:39.597Z,173.82
2024-02-08T18:42:08.288Z,177.93
2024-02-08T18:44:36.886Z,173.65
2024-02-08T18:47:08.859Z,186.32
2024-02-08T18:50:20.694Z,178.05
2024-02-08T18:52:51.413Z,172.82
2024-02-08T18:55:45.164Z,188.02
2024-02-08T18:58:19.995Z,177.70
2024-02-08T19:00:50.794Z,187.60
2024-02-08T19:03:21.537Z,187.38
2024-02-08T19:06:40.519Z,178.77
2024-02-08T19:09:20.612Z,178.43
2024-02-08T19:11:48.339Z,168.10
2024-02-08T19:14:17.409Z,184.15
2024-02-08T19:16:45.470Z,181.30
2024-02-08T19:19:14.863Z,181.05
2024-02-08T19:21:43.856Z,178.15
2024-02-08T19:24:16.947Z,187.75
2024-02-08T19:26:45.075Z,183.77
2024-02-08T19:29:18.664Z,180.02
2024-02-08T19:31:47.470Z,186.30
2024-02-08T19:34:21.898Z,178.13
2024-02-08T19:36:55.275Z,182.68
2024-02-08T19:39:29.433Z,177.85
2024-02-08T19:41:57.393Z,176.02
2024-02-08T19:44:26.575Z,184.57
2024-02-08T19:47:03.731Z,179.63
2024-02-08T19:49:40.775Z,179.43
2024-02-08T19:52:15.943Z,181.80
2024-02-08T19:54:44.484Z,179.45
2024-02-08T19:57:21.900Z,177.70
2024-02-08T19:59:54.804Z,180.55
2024-02-08T20:02:28.598Z,414.13
2024-02-08T20:05:01.233Z,349.42
2024-02-08T20:07:31.462Z,342.73
2024-02-08T20:10:02.644Z,201.10
2024-02-08T20:12:34.024Z,182.70
2024-02-08T20:15:17.242Z,255.43
2024-02-08T20:17:53.202Z,187.68
2024-02-08T20:20:23.267Z,340.33
2024-02-08T20:22:55.152Z,617.05
2024-02-08T20:25:28.572Z,204.02
2024-02-08T20:27:59.258Z,180.05
2024-02-08T20:30:29.262Z,193.30
2024-02-08T20:33:00.820Z,186.52
2024-02-08T20:35:30.849Z,185.40
2024-02-08T20:38:00.520Z,284.23
2024-02-08T20:40:29.324Z,247.18
2024-02-08T20:43:00.161Z,346.88
2024-02-08T20:45:55.535Z,348.33
2024-02-08T20:48:23.820Z,259.17
2024-02-08T20:50:56.186Z,248.80
2024-02-08T20:53:23.932Z,292.77
2024-02-08T20:56:14.486Z,209.25
2024-02-08T20:58:57.014Z,220.27
2024-02-08T21:01:28.667Z,190.50
2024-02-08T21:03:59.946Z,188.05
2024-02-08T21:06:27.745Z,186.57
2024-02-08T21:08:58.059Z,178.65
2024-02-08T21:11:26.164Z,184.80
2024-02-08T21:13:55.867Z,182.48
2024-02-08T21:16:23.894Z,183.02
2024-02-08T21:18:52.186Z,184.52
2024-02-08T21:21:45.098Z,184.70
2024-02-08T21:24:13.801Z,183.38
2024-02-08T21:26:49.648Z,182.77
2024-02-08T21:29:17.310Z,191.52
2024-02-08T21:35:07.036Z,189.23
2024-02-08T21:37:35.096Z,192.70
2024-02-08T21:40:28.138Z,191.23
2024-02-08T21:43:14.170Z,195.90
2024-02-08T21:46:36.142Z,192.05
2024-02-08T21:49:04.150Z,193.32
2024-02-08T21:51:34.106Z,188.90
2024-02-08T21:54:04.011Z,196.25
2024-02-08T22:00:34.271Z,191.75
2024-02-08T22:03:16.806Z,193.93
2024-02-08T22:05:45.715Z,199.50
2024-02-08T22:09:09.708Z,196.02
2024-02-08T22:13:49.007Z,196.65
2024-02-08T22:16:18.430Z,192.18
2024-02-08T22:19:15.742Z,193.68
2024-02-08T22:21:46.349Z,191.00
2024-02-08T22:24:38.716Z,200.43
2024-02-08T22:27:16.422Z,206.18
2024-02-08T22:29:45.305Z,199.07
2024-02-08T22:32:13.424Z,207.73
2024-02-08T22:34:46.598Z,202.68
2024-02-08T22:37:16.811Z,195.63
2024-02-08T22:39:45.267Z,191.82
2024-02-08T22:42:14.114Z,189.85
2024-02-08T22:44:42.643Z,210.70
2024-02-08T22:47:10.293Z,247.50
2024-02-08T22:50:02.470Z,240.13
2024-02-08T22:52:31.759Z,207.75
2024-02-08T22:54:59.481Z,199.18
2024-02-08T22:57:27.228Z,205.25
2024-02-08T22:59:55.075Z,211.52
2024-02-08T23:02:25.657Z,196.95
2024-02-08T23:04:54.633Z,197.23
2024-02-08T23:07:25.076Z,190.43
2024-02-08T23:09:54.282Z,194.35
2024-02-08T23:15:55.021Z,189.98
2024-02-08T23:18:24.006Z,193.55
2024-02-08T23:20:55.178Z,182.48
2024-02-08T23:23:22.909Z,183.32
2024-02-08T23:25:50.723Z,157.02
2024-02-08T23:28:22.714Z,133.07
2024-02-08T23:30:51.400Z,136.85
2024-02-08T23:33:24.060Z,111.82
2024-02-08T23:35:52.153Z,111.60
2024-02-08T23:38:24.194Z,121.03
2024-02-08T23:40:52.816Z,140.70
2024-02-08T23:43:20.631Z,147.93
2024-02-08T23:45:48.323Z,138.52
2024-02-08T23:48:16.142Z,140.27
2024-02-08T23:50:47.461Z,140.93
2024-02-08T23:53:48.370Z,137.55
2024-02-08T23:56:16.054Z,143.07
2024-02-08T23:58:44.688Z,148.50
